sensor_id;sensor_type;location;lat;lon;timestamp;temperature;humidity
20325;DHT22;10320;49.482;11.256;2022-07-29T00:00:00;20.20;89.40
20325;DHT22;10320;49.482;11.256;2022-07-29T00:02:27;20.10;89.20
20325;DHT22;10320;49.482;11.256;2022-07-29T00:04:53;20.10;89.40
20325;DHT22;10320;49.482;11.256;2022-07-29T05:54:53;20.10;89.80
20325;DHT22;10320;49.482;11.256;2022-07-29T05:57:21;19.60;97.10
20325;DHT22;10320;49.482;11.256;2022-07-29T05:59:48;19.70;97.60
20325;DHT22;10320;49.482;11.256;2022-07-29T06:02:14;19.80;97.00
20325;DHT22;10320;49.482;11.256;2022-07-29T06:04:40;19.90;96.50
20325;DHT22;10320;49.482;11.256;2022-07-29T06:07:05;20.10;96.10
20325;DHT22;10320;49.482;11.256;2022-07-29T06:09:32;20.20;95.90
20325;DHT22;10320;49.482;11.256;2022-07-29T06:11:57;20.30;95.30
20325;DHT22;10320;49.482;11.256;2022-07-29T06:14:24;20.30;95.40
20325;DHT22;10320;49.482;11.256;2022-07-29T06:16:49;20.50;95.30
20325;DHT22;10320;49.482;11.256;2022-07-29T06:19:15;20.50;95.30
20325;DHT22;10320;49.482;11.256;2022-07-29T06:21:45;20.70;95.30
20325;DHT22;10320;49.482;11.256;2022-07-29T06:24:11;20.80;95.20
20325;DHT22;10320;49.482;11.256;2022-07-29T06:26:41;20.90;94.60
20325;DHT22;10320;49.482;11.256;2022-07-29T06:29:08;21.00;94.40
20325;DHT22;10320;49.482;11.256;2022-07-29T06:31:36;21.10;94.20
20325;DHT22;10320;49.482;11.256;2022-07-29T06:34:02;21.20;95.10
20325;DHT22;10320;49.482;11.256;2022-07-29T06:36:28;21.30;93.90
20325;DHT22;10320;49.482;11.256;2022-07-29T06:38:54;21.40;93.90
20325;DHT22;10320;49.482;11.256;2022-07-29T06:41:20;21.50;94.70
20325;DHT22;10320;49.482;11.256;2022-07-29T06:43:46;21.60;94.90
20325;DHT22;10320;49.482;11.256;2022-07-29T06:46:15;21.70;94.30
20325;DHT22;10320;49.482;11.256;2022-07-29T06:48:43;21.80;93.90
20325;DHT22;10320;49.482;11.256;2022-07-29T06:51:09;21.80;94.50
20325;DHT22;10320;49.482;11.256;2022-07-29T06:53:37;22.00;94.60
20325;DHT22;10320;49.482;11.256;2022-07-29T06:56:05;22.10;95.20
20325;DHT22;10320;49.482;11.256;2022-07-29T06:58:31;22.20;94.60
20325;DHT22;10320;49.482;11.256;2022-07-29T07:00:58;22.40;94.80
20325;DHT22;10320;49.482;11.256;2022-07-29T07:03:26;22.50;94.50
20325;DHT22;10320;49.482;11.256;2022-07-29T07:05:53;22.70;94.00
20325;DHT22;10320;49.482;11.256;2022-07-29T07:08:19;23.00;93.90
20325;DHT22;10320;49.482;11.256;2022-07-29T07:10:46;23.20;93.50
20325;DHT22;10320;49.482;11.256;2022-07-29T07:13:11;23.50;93.10
20325;DHT22;10320;49.482;11.256;2022-07-29T07:15:38;23.70;92.90
20325;DHT22;10320;49.482;11.256;2022-07-29T07:18:04;23.90;92.20
20325;DHT22;10320;49.482;11.256;2022-07-29T07:20:32;24.10;92.00
20325;DHT22;10320;49.482;11.256;2022-07-29T07:22:58;24.30;92.70
20325;DHT22;10320;49.482;11.256;2022-07-29T07:25:23;24.30;92.10
20325;DHT22;10320;49.482;11.256;2022-07-29T07:27:49;24.30;91.80
20325;DHT22;10320;49.482;11.256;2022-07-29T07:30:15;24.20;92.50
20325;DHT22;10320;49.482;11.256;2022-07-29T07:32:40;24.20;92.20
20325;DHT22;10320;49.482;11.256;2022-07-29T07:35:07;24.20;92.20
20325;DHT22;10320;49.482;11.256;2022-07-29T07:37:34;24.20;92.30
20325;DHT22;10320;49.482;11.256;2022-07-29T07:40:00;24.20;92.30
20325;DHT22;10320;49.482;11.256;2022-07-29T07:42:26;24.20;92.20
20325;DHT22;10320;49.482;11.256;2022-07-29T07:44:52;24.30;91.90
20325;DHT22;10320;49.482;11.256;2022-07-29T07:47:18;24.50;92.70
20325;DHT22;10320;49.482;11.256;2022-07-29T07:49:51;24.60;92.10
20325;DHT22;10320;49.482;11.256;2022-07-29T07:52:18;24.80;92.30
20325;DHT22;10320;49.482;11.256;2022-07-29T07:54:44;25.00;92.40
20325;DHT22;10320;49.482;11.256;2022-07-29T07:57:13;25.20;92.00
20325;DHT22;10320;49.482;11.256;2022-07-29T07:59:40;25.50;91.80
20325;DHT22;10320;49.482;11.256;2022-07-29T08:02:06;25.70;91.10
20325;DHT22;10320;49.482;11.256;2022-07-29T08:04:32;25.90;90.60
20325;DHT22;10320;49.482;11.256;2022-07-29T08:06:58;25.90;91.10
20325;DHT22;10320;49.482;11.256;2022-07-29T08:09:25;26.00;91.30
20325;DHT22;10320;49.482;11.256;2022-07-29T08:11:52;26.00;91.40
20325;DHT22;10320;49.482;11.256;2022-07-29T08:14:18;25.90;92.10
20325;DHT22;10320;49.482;11.256;2022-07-29T08:16:44;26.00;94.50
20325;DHT22;10320;49.482;11.256;2022-07-29T08:19:10;25.80;95.30
20325;DHT22;10320;49.482;11.256;2022-07-29T08:21:36;26.00;95.80
20325;DHT22;10320;49.482;11.256;2022-07-29T08:24:02;25.50;94.30
20325;DHT22;10320;49.482;11.256;2022-07-29T08:26:46;25.60;94.70
20325;DHT22;10320;49.482;11.256;2022-07-29T08:29:12;25.80;94.70
20325;DHT22;10320;49.482;11.256;2022-07-29T08:31:38;26.00;93.60
20325;DHT22;10320;49.482;11.256;2022-07-29T08:34:05;26.10;92.80
20325;DHT22;10320;49.482;11.256;2022-07-29T08:36:31;26.00;93.70
20325;DHT22;10320;49.482;11.256;2022-07-29T08:38:57;25.90;93.50
20325;DHT22;10320;49.482;11.256;2022-07-29T08:41:23;25.80;94.30
20325;DHT22;10320;49.482;11.256;2022-07-29T08:43:50;25.90;94.10
20325;DHT22;10320;49.482;11.256;2022-07-29T08:46:16;26.10;93.70
20325;DHT22;10320;49.482;11.256;2022-07-29T08:48:42;26.30;94.10
20325;DHT22;10320;49.482;11.256;2022-07-29T08:51:13;26.30;94.30
20325;DHT22;10320;49.482;11.256;2022-07-29T08:53:42;26.40;94.20
20325;DHT22;10320;49.482;11.256;2022-07-29T08:56:11;26.40;94.30
20325;DHT22;10320;49.482;11.256;2022-07-29T08:58:39;26.70;94.30
20325;DHT22;10320;49.482;11.256;2022-07-29T09:01:06;26.70;94.20
20325;DHT22;10320;49.482;11.256;2022-07-29T09:03:34;27.00;94.10
20325;DHT22;10320;49.482;11.256;2022-07-29T09:06:02;27.00;93.90
20325;DHT22;10320;49.482;11.256;2022-07-29T09:08:28;27.20;94.00
20325;DHT22;10320;49.482;11.256;2022-07-29T09:10:54;27.20;92.80
20325;DHT22;10320;49.482;11.256;2022-07-29T09:13:23;27.10;93.20
20325;DHT22;10320;49.482;11.256;2022-07-29T09:15:50;27.40;93.50
20325;DHT22;10320;49.482;11.256;2022-07-29T09:18:42;27.50;92.70
20325;DHT22;10320;49.482;11.256;2022-07-29T09:21:10;27.50;92.50
20325;DHT22;10320;49.482;11.256;2022-07-29T09:24:05;27.60;92.20
20325;DHT22;10320;49.482;11.256;2022-07-29T09:26:41;27.70;93.00
20325;DHT22;10320;49.482;11.256;2022-07-29T09:29:18;27.90;92.70
20325;DHT22;10320;49.482;11.256;2022-07-29T09:31:52;27.90;91.20
20325;DHT22;10320;49.482;11.256;2022-07-29T09:34:37;27.70;90.90
20325;DHT22;10320;49.482;11.256;2022-07-29T09:37:03;27.50;90.10
20325;DHT22;10320;49.482;11.256;2022-07-29T09:39:38;27.70;90.50
20325;DHT22;10320;49.482;11.256;2022-07-29T09:42:11;27.90;89.80
20325;DHT22;10320;49.482;11.256;2022-07-29T09:44:44;28.20;90.00
20325;DHT22;10320;49.482;11.256;2022-07-29T09:47:10;28.70;88.70
20325;DHT22;10320;49.482;11.256;2022-07-29T09:49:58;29.10;87.60
20325;DHT22;10320;49.482;11.256;2022-07-29T09:52:29;29.00;85.20
20325;DHT22;10320;49.482;11.256;2022-07-29T09:55:08;28.80;85.40
20325;DHT22;10320;49.482;11.256;2022-07-29T09:57:34;28.70;86.30
20325;DHT22;10320;49.482;11.256;2022-07-29T10:00:08;28.60;87.10
20325;DHT22;10320;49.482;11.256;2022-07-29T10:02:35;28.20;87.00
20325;DHT22;10320;49.482;11.256;2022-07-29T10:05:04;28.20;87.90
20325;DHT22;10320;49.482;11.256;2022-07-29T10:10:09;28.50;88.10
20325;DHT22;10320;49.482;11.256;2022-07-29T10:12:57;28.60;88.10
20325;DHT22;10320;49.482;11.256;2022-07-29T10:15:25;28.80;88.20
20325;DHT22;10320;49.482;11.256;2022-07-29T10:17:54;28.90;88.40
20325;DHT22;10320;49.482;11.256;2022-07-29T10:20:21;28.90;88.40
20325;DHT22;10320;49.482;11.256;2022-07-29T10:22:49;29.40;88.90
20325;DHT22;10320;49.482;11.256;2022-07-29T10:25:15;29.90;85.30
20325;DHT22;10320;49.482;11.256;2022-07-29T10:27:41;30.20;86.50
20325;DHT22;10320;49.482;11.256;2022-07-29T10:30:08;29.80;84.20
20325;DHT22;10320;49.482;11.256;2022-07-29T10:46:54;29.90;84.20
20325;DHT22;10320;49.482;11.256;2022-07-29T10:49:25;29.60;84.80
20325;DHT22;10320;49.482;11.256;2022-07-29T10:57:21;29.50;84.30
20325;DHT22;10320;49.482;11.256;2022-07-29T11:00:26;29.00;84.50
20325;DHT22;10320;49.482;11.256;2022-07-29T11:07:31;28.80;87.70
20325;DHT22;10320;49.482;11.256;2022-07-29T11:15:10;28.80;86.10
20325;DHT22;10320;49.482;11.256;2022-07-29T11:23:29;28.30;87.40
20325;DHT22;10320;49.482;11.256;2022-07-29T11:29:01;27.90;87.80
20325;DHT22;10320;49.482;11.256;2022-07-29T11:31:41;27.90;88.90
20325;DHT22;10320;49.482;11.256;2022-07-29T11:39:41;27.20;99.90
20325;DHT22;10320;49.482;11.256;2022-07-29T11:44:56;26.50;99.90
20325;DHT22;10320;49.482;11.256;2022-07-29T11:47:22;26.00;99.90
20325;DHT22;10320;49.482;11.256;2022-07-29T11:49:48;25.70;99.90
20325;DHT22;10320;49.482;11.256;2022-07-29T11:52:14;25.80;99.90
20325;DHT22;10320;49.482;11.256;2022-07-29T11:54:42;25.90;99.90
20325;DHT22;10320;49.482;11.256;2022-07-29T11:57:08;25.90;99.90
20325;DHT22;10320;49.482;11.256;2022-07-29T11:59:41;26.00;99.90
20325;DHT22;10320;49.482;11.256;2022-07-29T12:02:08;26.20;99.90
20325;DHT22;10320;49.482;11.256;2022-07-29T12:04:46;26.30;99.90
20325;DHT22;10320;49.482;11.256;2022-07-29T12:07:13;26.50;99.90
20325;DHT22;10320;49.482;11.256;2022-07-29T12:09:39;26.70;99.90
20325;DHT22;10320;49.482;11.256;2022-07-29T12:12:04;26.80;99.90
20325;DHT22;10320;49.482;11.256;2022-07-29T12:14:32;27.10;99.90
20325;DHT22;10320;49.482;11.256;2022-07-29T12:17:00;27.40;99.90
20325;DHT22;10320;49.482;11.256;2022-07-29T12:19:28;27.70;99.90
20325;DHT22;10320;49.482;11.256;2022-07-29T12:21:55;28.20;99.90
20325;DHT22;10320;49.482;11.256;2022-07-29T12:24:21;28.10;99.90
20325;DHT22;10320;49.482;11.256;2022-07-29T12:26:55;28.30;99.90
20325;DHT22;10320;49.482;11.256;2022-07-29T12:29:22;28.70;99.90
20325;DHT22;10320;49.482;11.256;2022-07-29T12:31:52;29.00;99.90
20325;DHT22;10320;49.482;11.256;2022-07-29T12:34:23;29.10;99.90
20325;DHT22;10320;49.482;11.256;2022-07-29T12:36:52;29.00;99.90
20325;DHT22;10320;49.482;11.256;2022-07-29T12:39:18;29.30;99.90
20325;DHT22;10320;49.482;11.256;2022-07-29T12:41:45;29.30;99.90
20325;DHT22;10320;49.482;11.256;2022-07-29T12:44:10;29.00;99.90
20325;DHT22;10320;49.482;11.256;2022-07-29T12:46:36;29.00;99.90
20325;DHT22;10320;49.482;11.256;2022-07-29T12:49:03;29.10;99.90
20325;DHT22;10320;49.482;11.256;2022-07-29T12:51:32;29.20;99.90
20325;DHT22;10320;49.482;11.256;2022-07-29T12:54:09;29.60;99.90
20325;DHT22;10320;49.482;11.256;2022-07-29T12:56:43;29.40;99.90
20325;DHT22;10320;49.482;11.256;2022-07-29T12:59:16;29.50;99.90
20325;DHT22;10320;49.482;11.256;2022-07-29T13:01:43;29.50;99.90
20325;DHT22;10320;49.482;11.256;2022-07-29T13:04:09;29.60;99.90
20325;DHT22;10320;49.482;11.256;2022-07-29T13:06:43;30.10;99.90
20325;DHT22;10320;49.482;11.256;2022-07-29T13:09:19;30.20;99.90
20325;DHT22;10320;49.482;11.256;2022-07-29T13:11:52;30.70;99.90
20325;DHT22;10320;49.482;11.256;2022-07-29T13:14:36;30.80;99.90
20325;DHT22;10320;49.482;11.256;2022-07-29T13:17:13;30.60;99.80
20325;DHT22;10320;49.482;11.256;2022-07-29T13:20:07;30.10;99.40
20325;DHT22;10320;49.482;11.256;2022-07-29T13:22:39;29.60;99.90
20325;DHT22;10320;49.482;11.256;2022-07-29T13:25:05;28.90;99.90
20325;DHT22;10320;49.482;11.256;2022-07-29T13:27:37;28.70;99.90
20325;DHT22;10320;49.482;11.256;2022-07-29T13:30:05;28.60;99.90
20325;DHT22;10320;49.482;11.256;2022-07-29T13:32:32;28.30;99.90
20325;DHT22;10320;49.482;11.256;2022-07-29T13:35:05;28.10;99.90
20325;DHT22;10320;49.482;11.256;2022-07-29T13:37:33;27.50;99.80
20325;DHT22;10320;49.482;11.256;2022-07-29T13:40:00;27.40;99.90
20325;DHT22;10320;49.482;11.256;2022-07-29T13:42:28;27.20;99.90
20325;DHT22;10320;49.482;11.256;2022-07-29T13:44:54;26.80;99.90
20325;DHT22;10320;49.482;11.256;2022-07-29T13:47:20;26.40;99.90
20325;DHT22;10320;49.482;11.256;2022-07-29T13:49:47;25.90;99.90
20325;DHT22;10320;49.482;11.256;2022-07-29T13:52:13;26.00;99.90
20325;DHT22;10320;49.482;11.256;2022-07-29T13:54:38;25.80;99.90
20325;DHT22;10320;49.482;11.256;2022-07-29T13:57:05;25.50;99.90
20325;DHT22;10320;49.482;11.256;2022-07-29T13:59:31;25.20;99.90
20325;DHT22;10320;49.482;11.256;2022-07-29T14:48:15;24.80;99.90
20325;DHT22;10320;49.482;11.256;2022-07-29T14:50:41;23.80;99.90
20325;DHT22;10320;49.482;11.256;2022-07-29T14:53:06;24.00;99.90
20325;DHT22;10320;49.482;11.256;2022-07-29T14:55:32;24.10;99.90
20325;DHT22;10320;49.482;11.256;2022-07-29T14:57:58;24.30;99.90
20325;DHT22;10320;49.482;11.256;2022-07-29T15:00:24;24.40;99.90
20325;DHT22;10320;49.482;11.256;2022-07-29T15:02:50;24.60;99.90
20325;DHT22;10320;49.482;11.256;2022-07-29T15:05:16;24.80;99.90
20325;DHT22;10320;49.482;11.256;2022-07-29T15:07:42;25.30;99.90
20325;DHT22;10320;49.482;11.256;2022-07-29T15:10:08;25.60;99.90
20325;DHT22;10320;49.482;11.256;2022-07-29T15:12:34;25.70;99.90
20325;DHT22;10320;49.482;11.256;2022-07-29T15:15:00;25.40;99.90
20325;DHT22;10320;49.482;11.256;2022-07-29T15:17:25;24.90;99.90
20325;DHT22;10320;49.482;11.256;2022-07-29T15:19:51;24.10;99.90
20325;DHT22;10320;49.482;11.256;2022-07-29T15:22:17;23.60;99.90
20325;DHT22;10320;49.482;11.256;2022-07-29T15:24:42;23.40;99.90
20325;DHT22;10320;49.482;11.256;2022-07-29T15:27:09;23.30;99.90
20325;DHT22;10320;49.482;11.256;2022-07-29T15:29:43;23.00;99.90
20325;DHT22;10320;49.482;11.256;2022-07-29T15:32:09;22.80;99.90
20325;DHT22;10320;49.482;11.256;2022-07-29T15:34:35;22.60;99.90
20325;DHT22;10320;49.482;11.256;2022-07-29T15:37:02;22.20;99.90
20325;DHT22;10320;49.482;11.256;2022-07-29T15:39:27;21.90;99.90
20325;DHT22;10320;49.482;11.256;2022-07-29T15:41:53;21.80;99.90
20325;DHT22;10320;49.482;11.256;2022-07-29T20:05:48;21.70;99.90
20325;DHT22;10320;49.482;11.256;2022-07-29T20:08:18;17.90;99.90
20325;DHT22;10320;49.482;11.256;2022-07-29T20:10:44;17.70;99.90
20325;DHT22;10320;49.482;11.256;2022-07-29T20:13:10;17.70;99.90
20325;DHT22;10320;49.482;11.256;2022-07-29T20:15:35;17.70;99.90
20325;DHT22;10320;49.482;11.256;2022-07-29T20:18:01;17.60;99.90
20325;DHT22;10320;49.482;11.256;2022-07-29T20:20:27;17.60;99.90
20325;DHT22;10320;49.482;11.256;2022-07-29T20:22:55;17.60;99.90
20325;DHT22;10320;49.482;11.256;2022-07-29T20:25:21;17.60;99.90
20325;DHT22;10320;49.482;11.256;2022-07-29T20:27:47;17.60;99.90
20325;DHT22;10320;49.482;11.256;2022-07-29T20:30:18;17.60;99.90
20325;DHT22;10320;49.482;11.256;2022-07-29T20:32:44;17.60;99.90
20325;DHT22;10320;49.482;11.256;2022-07-29T20:35:10;17.60;99.90
20325;DHT22;10320;49.482;11.256;2022-07-29T20:37:37;17.60;99.90
20325;DHT22;10320;49.482;11.256;2022-07-29T20:40:03;17.60;99.90
20325;DHT22;10320;49.482;11.256;2022-07-29T20:42:29;17.60;99.90
20325;DHT22;10320;49.482;11.256;2022-07-29T20:44:54;17.50;99.90
20325;DHT22;10320;49.482;11.256;2022-07-29T20:47:22;17.50;99.90
20325;DHT22;10320;49.482;11.256;2022-07-29T20:49:48;17.50;99.90
20325;DHT22;10320;49.482;11.256;2022-07-29T20:52:14;17.50;99.90
20325;DHT22;10320;49.482;11.256;2022-07-29T20:54:39;17.50;99.90
20325;DHT22;10320;49.482;11.256;2022-07-29T20:57:05;17.40;99.90
20325;DHT22;10320;49.482;11.256;2022-07-29T20:59:31;17.50;99.90
20325;DHT22;10320;49.482;11.256;2022-07-29T21:01:57;17.40;99.90
20325;DHT22;10320;49.482;11.256;2022-07-29T21:04:23;17.40;99.90
20325;DHT22;10320;49.482;11.256;2022-07-29T21:06:51;17.40;99.90
20325;DHT22;10320;49.482;11.256;2022-07-29T21:09:19;17.40;99.90
20325;DHT22;10320;49.482;11.256;2022-07-29T21:11:44;17.40;99.90
20325;DHT22;10320;49.482;11.256;2022-07-29T21:14:10;17.30;99.90
20325;DHT22;10320;49.482;11.256;2022-07-29T21:16:51;17.30;99.90
20325;DHT22;10320;49.482;11.256;2022-07-29T21:19:17;17.30;99.90
20325;DHT22;10320;49.482;11.256;2022-07-29T21:21:43;17.30;99.90
20325;DHT22;10320;49.482;11.256;2022-07-29T21:24:08;17.20;99.90
20325;DHT22;10320;49.482;11.256;2022-07-29T21:26:34;17.30;99.90
20325;DHT22;10320;49.482;11.256;2022-07-29T21:29:00;17.20;99.90
20325;DHT22;10320;49.482;11.256;2022-07-29T21:31:26;17.20;99.90
20325;DHT22;10320;49.482;11.256;2022-07-29T21:33:52;17.20;99.90
20325;DHT22;10320;49.482;11.256;2022-07-29T21:36:18;17.10;99.90
20325;DHT22;10320;49.482;11.256;2022-07-29T21:38:44;17.10;99.90
20325;DHT22;10320;49.482;11.256;2022-07-29T21:41:10;17.10;99.90
20325;DHT22;10320;49.482;11.256;2022-07-29T21:43:37;17.10;99.90
20325;DHT22;10320;49.482;11.256;2022-07-29T21:46:03;17.10;99.90
20325;DHT22;10320;49.482;11.256;2022-07-29T21:48:29;17.10;99.90
20325;DHT22;10320;49.482;11.256;2022-07-29T21:50:54;17.10;99.90
20325;DHT22;10320;49.482;11.256;2022-07-29T21:53:21;17.10;99.90
20325;DHT22;10320;49.482;11.256;2022-07-29T21:55:47;17.10;99.90
20325;DHT22;10320;49.482;11.256;2022-07-29T21:58:15;17.10;99.90
20325;DHT22;10320;49.482;11.256;2022-07-29T22:00:41;17.00;99.90
20325;DHT22;10320;49.482;11.256;2022-07-29T22:03:08;17.00;99.90
20325;DHT22;10320;49.482;11.256;2022-07-29T22:05:34;17.00;99.90
20325;DHT22;10320;49.482;11.256;2022-07-29T22:08:00;16.90;99.90
20325;DHT22;10320;49.482;11.256;2022-07-29T22:10:27;17.00;99.90
20325;DHT22;10320;49.482;11.256;2022-07-29T22:12:55;17.00;99.90
20325;DHT22;10320;49.482;11.256;2022-07-29T22:15:21;16.90;99.90
20325;DHT22;10320;49.482;11.256;2022-07-29T22:17:47;17.00;99.90
20325;DHT22;10320;49.482;11.256;2022-07-29T22:20:13;17.00;99.90
20325;DHT22;10320;49.482;11.256;2022-07-29T22:22:39;16.90;99.90
20325;DHT22;10320;49.482;11.256;2022-07-29T22:25:05;16.90;99.90
20325;DHT22;10320;49.482;11.256;2022-07-29T22:27:32;16.90;99.90
20325;DHT22;10320;49.482;11.256;2022-07-29T22:29:57;16.90;99.90
20325;DHT22;10320;49.482;11.256;2022-07-29T22:32:23;16.90;99.90
20325;DHT22;10320;49.482;11.256;2022-07-29T22:34:49;16.90;99.90
20325;DHT22;10320;49.482;11.256;2022-07-29T22:37:15;16.90;99.90
20325;DHT22;10320;49.482;11.256;2022-07-29T22:39:41;16.80;99.90
20325;DHT22;10320;49.482;11.256;2022-07-29T22:42:07;16.80;99.90
20325;DHT22;10320;49.482;11.256;2022-07-29T22:44:32;16.80;99.90
20325;DHT22;10320;49.482;11.256;2022-07-29T22:46:58;16.80;99.90
20325;DHT22;10320;49.482;11.256;2022-07-29T22:49:24;16.80;99.90
20325;DHT22;10320;49.482;11.256;2022-07-29T22:51:50;16.70;99.90
20325;DHT22;10320;49.482;11.256;2022-07-29T22:54:16;16.70;99.90
20325;DHT22;10320;49.482;11.256;2022-07-29T22:56:41;16.70;99.90
20325;DHT22;10320;49.482;11.256;2022-07-29T22:59:07;16.60;99.90
20325;DHT22;10320;49.482;11.256;2022-07-29T23:01:33;16.60;99.90
20325;DHT22;10320;49.482;11.256;2022-07-29T23:03:58;16.50;99.90
20325;DHT22;10320;49.482;11.256;2022-07-29T23:06:24;16.40;99.90
20325;DHT22;10320;49.482;11.256;2022-07-29T23:08:50;16.40;99.90
20325;DHT22;10320;49.482;11.256;2022-07-29T23:11:15;16.30;99.90
20325;DHT22;10320;49.482;11.256;2022-07-29T23:13:41;16.30;99.90
20325;DHT22;10320;49.482;11.256;2022-07-29T23:16:07;16.40;99.90
20325;DHT22;10320;49.482;11.256;2022-07-29T23:18:33;16.40;99.90
20325;DHT22;10320;49.482;11.256;2022-07-29T23:20:58;16.30;99.90
20325;DHT22;10320;49.482;11.256;2022-07-29T23:23:24;16.40;99.90
20325;DHT22;10320;49.482;11.256;2022-07-29T23:25:50;16.40;99.90
20325;DHT22;10320;49.482;11.256;2022-07-29T23:28:15;16.30;99.90
20325;DHT22;10320;49.482;11.256;2022-07-29T23:30:41;16.20;99.90
20325;DHT22;10320;49.482;11.256;2022-07-29T23:33:07;16.20;99.90
20325;DHT22;10320;49.482;11.256;2022-07-29T23:35:32;16.10;99.90
20325;DHT22;10320;49.482;11.256;2022-07-29T23:37:58;16.10;99.90
20325;DHT22;10320;49.482;11.256;2022-07-29T23:40:24;16.00;99.90
20325;DHT22;10320;49.482;11.256;2022-07-29T23:42:49;15.90;99.90
20325;DHT22;10320;49.482;11.256;2022-07-29T23:45:15;15.90;99.90
20325;DHT22;10320;49.482;11.256;2022-07-29T23:47:41;15.80;99.90
20325;DHT22;10320;49.482;11.256;2022-07-29T23:50:08;15.80;99.90
20325;DHT22;10320;49.482;11.256;2022-07-29T23:52:36;15.70;99.90
20325;DHT22;10320;49.482;11.256;2022-07-29T23:55:03;15.70;99.90
20325;DHT22;10320;49.482;11.256;2022-07-29T23:57:28;15.60;99.90
20325;DHT22;10320;49.482;11.256;2022-07-29T23:59:54;15.60;99.90
